Chippewa Falls, WI

3:27 PM CST on January 28, 2015 (GMT -0600)
Rice Lake Regional-Carl's | Change Station
CLOSE
Current Station
Airport
Location: Rice Lake,
Elevation: 1106 ft
Nearby Weather Stations
Active Advisory: Freezing Rain Advisory

Elev 1106 ft 45.42 °N, 91.78 °W | Updated 12 minutes ago

Overcast
Overcast
29 °F
Feels Like 17 °F
N
18
Wind Variable Wind from ESE
Gusts 25 mph

Today
High -- | Low -- °F
--% Chance of Precip.
Yesterday
High -- | Low -- °F
Precip. -- in
7:29 AM 5:07 PM
Waxing Gibbous, 68% visible
Pressure 29.84 in
Visibility 5.0 miles
Clouds Overcast 1300 ft
Windchill 17 °F
Dew Point 24 °F
Humidity 81%
Rainfall 0.00 in
Snow Depth Not available.
UV 0 out of 12
Pollen .10 out of 12
Air Quality Not available.
Flu Activity Not available.
METAR KRPD 282115Z AUTO 12016G22KT 5SM HZ OVC013 M01/M04 A2984 RMK AO2 T10151044

More Conditions Fewer Conditions

Pressure 29.84 in
Visibility 5.0 miles
Clouds Overcast 1300 ft
Windchill 17 °F
Dew Point 24 °F
Humidity 81%
Rainfall 0.00 in
Snow Depth Not available.
UV 0 out of 12
Pollen .10 out of 12
Air Quality Not available.
Flu Activity Not available.
METAR KRPD 282115Z AUTO 12016G22KT 5SM HZ OVC013 M01/M04 A2984 RMK AO2 T10151044

More Conditions Fewer Conditions

10-Day Weather Forecast

Almanac

Astronomy

Jan. 28, 2015 Rise Set
Actual Time
Civil Twilight
Nautical Twilight
Astronomical Twilight
Moon
Length of Visible Light
Length of Day
Tomorrow will be .
, % of the Moon is Illuminated

Today's Extremes

State Highs State Lows

Community

WunderPhotos

Upload Photos

1,791,263 photos uploaded!

WunderBlogs® & News

Nearby

Air Quality

  Air Quality AQ Index Pollutant
Not available.

Snow Depth

Station Depth Elevation

Earthquake Activity

City Distance Mag. Time & Date
Minimum magnitude displayed is 2.5.

Coastal Water Temperatures

Place Temperature

Nearby Weather Stations